sensor_id;sensor_type;location;lat;lon;timestamp;pressure;altitude;pressure_sealevel;temperature;humidity
79123;BME280;68526;44.600;26.032;2023-04-15T00:00:12;99730.16;;;12.08;70.40
79123;BME280;68526;44.600;26.032;2023-04-15T00:00:30;99715.19;;;12.06;70.77
79123;BME280;68526;44.600;26.032;2023-04-15T00:00:48;99721.81;;;12.05;70.32
79123;BME280;68526;44.600;26.032;2023-04-15T00:01:05;99719.97;;;12.09;70.50
79123;BME280;68526;44.600;26.032;2023-04-15T00:01:21;99718.38;;;12.08;70.78
79123;BME280;68526;44.600;26.032;2023-04-15T00:01:38;99724.66;;;12.08;70.60
79123;BME280;68526;44.600;26.032;2023-04-15T00:01:54;99722.72;;;12.09;70.46
79123;BME280;68526;44.600;26.032;2023-04-15T00:02:16;99731.31;;;12.07;70.74
79123;BME280;68526;44.600;26.032;2023-04-15T00:02:33;99727.75;;;12.07;70.63
79123;BME280;68526;44.600;26.032;2023-04-15T00:02:50;99734.03;;;12.07;70.77
79123;BME280;68526;44.600;26.032;2023-04-15T00:03:07;99742.28;;;12.07;70.93
79123;BME280;68526;44.600;26.032;2023-04-15T00:03:23;99737.59;;;12.08;70.75
79123;BME280;68526;44.600;26.032;2023-04-15T00:03:39;99741.47;;;12.07;70.65
79123;BME280;68526;44.600;26.032;2023-04-15T00:03:56;99737.81;;;12.02;70.63
79123;BME280;68526;44.600;26.032;2023-04-15T00:04:12;99743.44;;;12.06;70.43
79123;BME280;68526;44.600;26.032;2023-04-15T00:04:28;99743.44;;;12.06;70.50
79123;BME280;68526;44.600;26.032;2023-04-15T00:04:46;99737.94;;;12.06;70.91
79123;BME280;68526;44.600;26.032;2023-04-15T00:05:02;99733.25;;;12.07;70.77
79123;BME280;68526;44.600;26.032;2023-04-15T00:05:19;99742.63;;;12.06;70.71
79123;BME280;68526;44.600;26.032;2023-04-15T00:05:35;99734.41;;;12.06;71.13
79123;BME280;68526;44.600;26.032;2023-04-15T00:05:50;99737.16;;;12.06;70.78
79123;BME280;68526;44.600;26.032;2023-04-15T00:06:07;99731.66;;;12.06;70.88
79123;BME280;68526;44.600;26.032;2023-04-15T00:06:22;99736.00;;;12.07;70.75
79123;BME280;68526;44.600;26.032;2023-04-15T00:06:39;99724.56;;;12.05;70.56
79123;BME280;68526;44.600;26.032;2023-04-15T00:06:56;99727.75;;;12.07;71.06
79123;BME280;68526;44.600;26.032;2023-04-15T00:07:12;99712.66;;;12.00;71.23
79123;BME280;68526;44.600;26.032;2023-04-15T00:07:27;99719.88;;;12.05;71.14
79123;BME280;68526;44.600;26.032;2023-04-15T00:07:44;99724.56;;;12.05;70.83
79123;BME280;68526;44.600;26.032;2023-04-15T00:08:01;99715.53;;;12.04;70.73
79123;BME280;68526;44.600;26.032;2023-04-15T00:08:18;99721.69;;;12.01;71.28
79123;BME280;68526;44.600;26.032;2023-04-15T00:08:34;99715.41;;;12.00;71.15
79123;BME280;68526;44.600;26.032;2023-04-15T00:08:50;99726.03;;;12.02;70.85
79123;BME280;68526;44.600;26.032;2023-04-15T00:09:06;99719.41;;;12.03;71.25
79123;BME280;68526;44.600;26.032;2023-04-15T00:09:22;99723.28;;;12.02;71.42
79123;BME280;68526;44.600;26.032;2023-04-15T00:09:38;99728.44;;;12.03;71.15
79123;BME280;68526;44.600;26.032;2023-04-15T00:09:55;99729.25;;;12.04;71.47
79123;BME280;68526;44.600;26.032;2023-04-15T00:10:12;99737.50;;;12.04;71.33
79123;BME280;68526;44.600;26.032;2023-04-15T00:10:28;99740.56;;;12.02;71.17
79123;BME280;68526;44.600;26.032;2023-04-15T00:10:44;99744.09;;;12.03;71.43
79123;BME280;68526;44.600;26.032;2023-04-15T00:11:00;99745.72;;;12.04;71.00
79123;BME280;68526;44.600;26.032;2023-04-15T00:11:20;99752.34;;;12.03;71.43
79123;BME280;68526;44.600;26.032;2023-04-15T00:11:36;99759.78;;;12.02;71.53
79123;BME280;68526;44.600;26.032;2023-04-15T00:11:51;99757.38;;;12.01;71.38
79123;BME280;68526;44.600;26.032;2023-04-15T00:12:08;99758.53;;;12.00;71.21
79123;BME280;68526;44.600;26.032;2023-04-15T00:12:24;99750.97;;;11.97;71.40
79123;BME280;68526;44.600;26.032;2023-04-15T00:12:40;99750.88;;;11.93;71.86
79123;BME280;68526;44.600;26.032;2023-04-15T00:12:57;99750.19;;;11.96;71.87
79123;BME280;68526;44.600;26.032;2023-04-15T00:13:12;99749.38;;;11.96;71.68
79123;BME280;68526;44.600;26.032;2023-04-15T00:13:29;99748.56;;;11.95;71.51
79123;BME280;68526;44.600;26.032;2023-04-15T00:13:45;99752.13;;;11.96;71.65
79123;BME280;68526;44.600;26.032;2023-04-15T00:14:01;99749.38;;;11.96;71.63
79123;BME280;68526;44.600;26.032;2023-04-15T00:14:17;99739.53;;;11.95;71.72
79123;BME280;68526;44.600;26.032;2023-04-15T00:14:34;99739.53;;;11.95;71.48
79123;BME280;68526;44.600;26.032;2023-04-15T00:14:50;99738.41;;;11.96;71.38
79123;BME280;68526;44.600;26.032;2023-04-15T00:15:08;99731.66;;;11.93;71.32
79123;BME280;68526;44.600;26.032;2023-04-15T00:15:24;99735.66;;;11.96;71.71
79123;BME280;68526;44.600;26.032;2023-04-15T00:15:41;99736.00;;;11.94;71.48
79123;BME280;68526;44.600;26.032;2023-04-15T00:15:57;99735.88;;;11.91;72.07
79123;BME280;68526;44.600;26.032;2023-04-15T00:16:14;99740.69;;;11.94;71.61
79123;BME280;68526;44.600;26.032;2023-04-15T00:16:30;99732.00;;;11.92;71.77
79123;BME280;68526;44.600;26.032;2023-04-15T00:16:46;99726.97;;;11.94;71.62
79123;BME280;68526;44.600;26.032;2023-04-15T00:17:02;99738.75;;;11.94;71.78
79123;BME280;68526;44.600;26.032;2023-04-15T00:17:19;99728.13;;;11.93;71.25
79123;BME280;68526;44.600;26.032;2023-04-15T00:17:36;99740.69;;;11.94;71.32
79123;BME280;68526;44.600;26.032;2023-04-15T00:17:53;99724.56;;;11.92;71.66
79123;BME280;68526;44.600;26.032;2023-04-15T00:18:09;99729.94;;;11.89;71.65
79123;BME280;68526;44.600;26.032;2023-04-15T00:18:25;99736.22;;;11.89;71.58
79123;BME280;68526;44.600;26.032;2023-04-15T00:18:41;99730.06;;;11.92;71.76
79123;BME280;68526;44.600;26.032;2023-04-15T00:18:58;99739.91;;;11.93;72.07
79123;BME280;68526;44.600;26.032;2023-04-15T00:19:14;99728.69;;;11.86;71.48
79123;BME280;68526;44.600;26.032;2023-04-15T00:19:30;99736.34;;;11.93;71.80
79123;BME280;68526;44.600;26.032;2023-04-15T00:19:45;99739.09;;;11.93;71.71
79123;BME280;68526;44.600;26.032;2023-04-15T00:20:01;99735.88;;;11.91;71.81
79123;BME280;68526;44.600;26.032;2023-04-15T00:20:20;99742.66;;;11.93;71.99
79123;BME280;68526;44.600;26.032;2023-04-15T00:20:38;99741.03;;;11.92;71.55
79123;BME280;68526;44.600;26.032;2023-04-15T00:20:53;99737.50;;;11.92;71.91
79123;BME280;68526;44.600;26.032;2023-04-15T00:21:09;99753.97;;;11.92;71.72
79123;BME280;68526;44.600;26.032;2023-04-15T00:21:25;99747.66;;;11.91;71.83
79123;BME280;68526;44.600;26.032;2023-04-15T00:21:43;99739.41;;;11.91;71.96
79123;BME280;68526;44.600;26.032;2023-04-15T00:22:00;99736.59;;;11.88;72.01
79123;BME280;68526;44.600;26.032;2023-04-15T00:22:16;99742.50;;;11.90;71.61
79123;BME280;68526;44.600;26.032;2023-04-15T00:22:32;99745.63;;;11.88;72.06
79123;BME280;68526;44.600;26.032;2023-04-15T00:22:48;99744.00;;;11.87;71.96
79123;BME280;68526;44.600;26.032;2023-04-15T00:23:04;99745.16;;;11.86;71.63
79123;BME280;68526;44.600;26.032;2023-04-15T00:23:20;99743.22;;;11.87;71.70
79123;BME280;68526;44.600;26.032;2023-04-15T00:23:37;99743.22;;;11.87;71.59
79123;BME280;68526;44.600;26.032;2023-04-15T00:23:53;99743.53;;;11.85;72.18
79123;BME280;68526;44.600;26.032;2023-04-15T00:24:08;99741.16;;;11.84;71.65
79123;BME280;68526;44.600;26.032;2023-04-15T00:24:24;99736.47;;;11.84;71.96
79123;BME280;68526;44.600;26.032;2023-04-15T00:24:40;99737.94;;;11.82;72.01
79123;BME280;68526;44.600;26.032;2023-04-15T00:24:57;99739.56;;;11.83;72.02
79123;BME280;68526;44.600;26.032;2023-04-15T00:25:13;99741.50;;;11.82;72.00
79123;BME280;68526;44.600;26.032;2023-04-15T00:25:29;99740.34;;;11.83;72.08
79123;BME280;68526;44.600;26.032;2023-04-15T00:25:46;99732.78;;;11.80;71.57
79123;BME280;68526;44.600;26.032;2023-04-15T00:26:01;99737.44;;;11.80;71.92
79123;BME280;68526;44.600;26.032;2023-04-15T00:26:17;99738.59;;;11.78;71.75
79123;BME280;68526;44.600;26.032;2023-04-15T00:26:33;99734.69;;;11.80;71.67
79123;BME280;68526;44.600;26.032;2023-04-15T00:26:51;99740.53;;;11.78;71.85
79123;BME280;68526;44.600;26.032;2023-04-15T00:27:07;99742.94;;;11.80;71.69
79123;BME280;68526;44.600;26.032;2023-04-15T00:27:23;99745.69;;;11.80;71.72
79123;BME280;68526;44.600;26.032;2023-04-15T00:27:39;99744.88;;;11.79;71.70
79123;BME280;68526;44.600;26.032;2023-04-15T00:27:55;99744.09;;;11.78;71.90
79123;BME280;68526;44.600;26.032;2023-04-15T00:28:12;99744.88;;;11.79;71.78
79123;BME280;68526;44.600;26.032;2023-04-15T00:28:28;99741.34;;;11.78;71.81
79123;BME280;68526;44.600;26.032;2023-04-15T00:28:45;99747.97;;;11.77;71.81
79123;BME280;68526;44.600;26.032;2023-04-15T00:29:01;99741.25;;;11.75;71.39
79123;BME280;68526;44.600;26.032;2023-04-15T00:29:17;99742.84;;;11.76;71.77
79123;BME280;68526;44.600;26.032;2023-04-15T00:29:33;99749.91;;;11.77;71.58
79123;BME280;68526;44.600;26.032;2023-04-15T00:29:50;99747.97;;;11.77;71.13
79123;BME280;68526;44.600;26.032;2023-04-15T00:30:08;99742.84;;;11.76;71.60
79123;BME280;68526;44.600;26.032;2023-04-15T00:30:24;99735.75;;;11.75;71.66
79123;BME280;68526;44.600;26.032;2023-04-15T00:30:40;99745.94;;;11.74;71.49
79123;BME280;68526;44.600;26.032;2023-04-15T00:30:56;99735.28;;;11.73;71.75
79123;BME280;68526;44.600;26.032;2023-04-15T00:31:12;99743.97;;;11.75;71.54
79123;BME280;68526;44.600;26.032;2023-04-15T00:31:30;99739.16;;;11.72;71.60
79123;BME280;68526;44.600;26.032;2023-04-15T00:31:46;99730.59;;;11.73;71.76
79123;BME280;68526;44.600;26.032;2023-04-15T00:32:01;99738.38;;;11.71;71.38
79123;BME280;68526;44.600;26.032;2023-04-15T00:32:17;99737.56;;;11.71;71.33
79123;BME280;68526;44.600;26.032;2023-04-15T00:32:33;99737.44;;;11.67;71.72
79123;BME280;68526;44.600;26.032;2023-04-15T00:32:50;99740.66;;;11.69;71.31
79123;BME280;68526;44.600;26.032;2023-04-15T00:33:06;99743.41;;;11.69;71.29
79123;BME280;68526;44.600;26.032;2023-04-15T00:33:22;99739.38;;;11.67;71.39
79123;BME280;68526;44.600;26.032;2023-04-15T00:33:38;99737.78;;;11.66;71.58
79123;BME280;68526;44.600;26.032;2023-04-15T00:33:54;99735.84;;;11.66;71.65
79123;BME280;68526;44.600;26.032;2023-04-15T00:34:10;99737.00;;;11.65;71.48
79123;BME280;68526;44.600;26.032;2023-04-15T00:34:27;99729.56;;;11.66;71.25
79123;BME280;68526;44.600;26.032;2023-04-15T00:34:43;99733.44;;;11.65;71.22
79123;BME280;68526;44.600;26.032;2023-04-15T00:34:59;99732.66;;;11.64;71.48
79123;BME280;68526;44.600;26.032;2023-04-15T00:35:14;99730.72;;;11.65;71.39
79123;BME280;68526;44.600;26.032;2023-04-15T00:35:30;99729.09;;;11.64;71.55
79123;BME280;68526;44.600;26.032;2023-04-15T00:35:48;99731.06;;;11.63;71.63
79123;BME280;68526;44.600;26.032;2023-04-15T00:36:05;99726.72;;;11.62;71.76
79123;BME280;68526;44.600;26.032;2023-04-15T00:36:21;99723.63;;;11.64;71.21
79123;BME280;68526;44.600;26.032;2023-04-15T00:36:37;99718.81;;;11.61;71.53
79123;BME280;68526;44.600;26.032;2023-04-15T00:36:53;99722.03;;;11.63;71.44
79123;BME280;68526;44.600;26.032;2023-04-15T00:37:10;99719.59;;;11.61;71.79
79123;BME280;68526;44.600;26.032;2023-04-15T00:37:26;99712.19;;;11.62;71.35
79123;BME280;68526;44.600;26.032;2023-04-15T00:37:42;99719.28;;;11.63;71.26
79123;BME280;68526;44.600;26.032;2023-04-15T00:37:57;99714.13;;;11.61;71.75
79123;BME280;68526;44.600;26.032;2023-04-15T00:38:14;99713.00;;;11.62;71.39
79123;BME280;68526;44.600;26.032;2023-04-15T00:38:29;99714.91;;;11.62;71.66
79123;BME280;68526;44.600;26.032;2023-04-15T00:38:46;99712.19;;;11.62;71.85
79123;BME280;68526;44.600;26.032;2023-04-15T00:39:02;99718.50;;;11.62;71.31
79123;BME280;68526;44.600;26.032;2023-04-15T00:39:19;99720.41;;;11.62;71.21
79123;BME280;68526;44.600;26.032;2023-04-15T00:39:35;99720.41;;;11.62;71.31
79123;BME280;68526;44.600;26.032;2023-04-15T00:39:51;99724.28;;;11.61;71.54
79123;BME280;68526;44.600;26.032;2023-04-15T00:40:11;99718.00;;;11.60;71.66
79123;BME280;68526;44.600;26.032;2023-04-15T00:40:28;99725.44;;;11.60;71.36
79123;BME280;68526;44.600;26.032;2023-04-15T00:40:43;99728.97;;;11.60;71.74
79123;BME280;68526;44.600;26.032;2023-04-15T00:41:00;99726.94;;;11.57;71.41
79123;BME280;68526;44.600;26.032;2023-04-15T00:41:17;99716.41;;;11.47;71.66
79123;BME280;68526;44.600;26.032;2023-04-15T00:41:33;99739.84;;;11.57;71.74
79123;BME280;68526;44.600;26.032;2023-04-15T00:41:53;99739.84;;;11.57;71.58
79123;BME280;68526;44.600;26.032;2023-04-15T00:42:10;99742.13;;;11.55;71.52
79123;BME280;68526;44.600;26.032;2023-04-15T00:42:26;99738.13;;;11.52;71.48
79123;BME280;68526;44.600;26.032;2023-04-15T00:42:43;99664.81;;;11.04;71.22
79123;BME280;68526;44.600;26.032;2023-04-15T00:42:59;99740.88;;;11.52;71.42
79123;BME280;68526;44.600;26.032;2023-04-15T00:43:16;99742.03;;;11.51;71.76
79123;BME280;68526;44.600;26.032;2023-04-15T00:43:32;99749.09;;;11.52;71.53
79123;BME280;68526;44.600;26.032;2023-04-15T00:43:47;99748.97;;;11.48;71.82
79123;BME280;68526;44.600;26.032;2023-04-15T00:44:04;99750.56;;;11.49;71.79
79123;BME280;68526;44.600;26.032;2023-04-15T00:44:20;99748.97;;;11.48;71.82
79123;BME280;68526;44.600;26.032;2023-04-15T00:44:37;99752.84;;;11.47;71.82
79123;BME280;68526;44.600;26.032;2023-04-15T00:44:53;99754.44;;;11.48;71.82
79123;BME280;68526;44.600;26.032;2023-04-15T00:45:10;99760.28;;;11.47;71.50
79123;BME280;68526;44.600;26.032;2023-04-15T00:45:27;99751.72;;;11.48;71.38
79123;BME280;68526;44.600;26.032;2023-04-15T00:45:43;99750.13;;;11.47;71.63
79123;BME280;68526;44.600;26.032;2023-04-15T00:45:59;99762.22;;;11.46;71.91
79123;BME280;68526;44.600;26.032;2023-04-15T00:46:19;99754.66;;;11.43;71.88
79123;BME280;68526;44.600;26.032;2023-04-15T00:46:36;99759.03;;;11.44;71.45
79123;BME280;68526;44.600;26.032;2023-04-15T00:46:53;99751.59;;;11.45;71.39
79123;BME280;68526;44.600;26.032;2023-04-15T00:47:09;99762.44;;;11.41;71.59
79123;BME280;68526;44.600;26.032;2023-04-15T00:47:26;99755.72;;;11.39;71.98
79123;BME280;68526;44.600;26.032;2023-04-15T00:47:44;99760.38;;;11.38;71.79
79123;BME280;68526;44.600;26.032;2023-04-15T00:48:01;99759.56;;;11.38;71.51
79123;BME280;68526;44.600;26.032;2023-04-15T00:48:17;99760.38;;;11.38;71.70
79123;BME280;68526;44.600;26.032;2023-04-15T00:48:33;99754.88;;;11.38;71.55
79123;BME280;68526;44.600;26.032;2023-04-15T00:48:50;99749.41;;;11.38;71.57
79123;BME280;68526;44.600;26.032;2023-04-15T00:49:06;99749.41;;;11.38;71.46
79123;BME280;68526;44.600;26.032;2023-04-15T00:49:23;99750.53;;;11.37;71.64
79123;BME280;68526;44.600;26.032;2023-04-15T00:49:40;99750.53;;;11.37;71.70
79123;BME280;68526;44.600;26.032;2023-04-15T00:49:56;99741.28;;;11.30;71.51
79123;BME280;68526;44.600;26.032;2023-04-15T00:50:12;99749.75;;;11.37;71.54
79123;BME280;68526;44.600;26.032;2023-04-15T00:50:28;99758.78;;;11.37;71.47
79123;BME280;68526;44.600;26.032;2023-04-15T00:50:44;99756.03;;;11.37;71.56
79123;BME280;68526;44.600;26.032;2023-04-15T00:51:00;99757.19;;;11.36;71.83
79123;BME280;68526;44.600;26.032;2023-04-15T00:51:17;99753.97;;;11.34;71.40
79123;BME280;68526;44.600;26.032;2023-04-15T00:51:33;99751.91;;;11.31;71.63
79123;BME280;68526;44.600;26.032;2023-04-15T00:51:51;99757.19;;;11.36;72.02
79123;BME280;68526;44.600;26.032;2023-04-15T00:52:07;99760.25;;;11.35;71.93
79123;BME280;68526;44.600;26.032;2023-04-15T00:52:23;99757.38;;;11.31;71.94
79123;BME280;68526;44.600;26.032;2023-04-15T00:52:39;99762.56;;;11.33;71.74
79123;BME280;68526;44.600;26.032;2023-04-15T00:52:56;99768.50;;;11.35;71.66
79123;BME280;68526;44.600;26.032;2023-04-15T00:53:12;99767.69;;;11.34;71.68
79123;BME280;68526;44.600;26.032;2023-04-15T00:53:28;99765.75;;;11.35;72.22
79123;BME280;68526;44.600;26.032;2023-04-15T00:53:43;99762.22;;;11.34;71.55
79123;BME280;68526;44.600;26.032;2023-04-15T00:53:59;99766.09;;;11.33;72.13
79123;BME280;68526;44.600;26.032;2023-04-15T00:54:15;99774.31;;;11.33;72.06
79123;BME280;68526;44.600;26.032;2023-04-15T00:54:32;99765.28;;;11.33;72.10
79123;BME280;68526;44.600;26.032;2023-04-15T00:54:48;99771.56;;;11.33;72.16
79123;BME280;68526;44.600;26.032;2023-04-15T00:55:06;99765.28;;;11.33;72.06
79123;BME280;68526;44.600;26.032;2023-04-15T00:55:23;99771.56;;;11.33;72.22
79123;BME280;68526;44.600;26.032;2023-04-15T00:55:39;99763.22;;;11.30;72.17
79123;BME280;68526;44.600;26.032;2023-04-15T00:55:55;99764.47;;;11.32;71.79
79123;BME280;68526;44.600;26.032;2023-04-15T00:56:12;99774.63;;;11.32;72.36
79123;BME280;68526;44.600;26.032;2023-04-15T00:56:29;99768.34;;;11.31;71.64
79123;BME280;68526;44.600;26.032;2023-04-15T00:56:45;99772.59;;;11.29;72.20
79123;BME280;68526;44.600;26.032;2023-04-15T00:57:01;99769.50;;;11.30;72.13
79123;BME280;68526;44.600;26.032;2023-04-15T00:57:20;99747.41;;;11.14;72.43
79123;BME280;68526;44.600;26.032;2023-04-15T00:57:38;99772.13;;;11.27;72.33
79123;BME280;68526;44.600;26.032;2023-04-15T00:57:55;99759.09;;;11.23;71.80
79123;BME280;68526;44.600;26.032;2023-04-15T00:58:11;99767.44;;;11.27;72.40
79123;BME280;68526;44.600;26.032;2023-04-15T00:58:27;99761.97;;;11.27;72.33
79123;BME280;68526;44.600;26.032;2023-04-15T00:58:43;99769.41;;;11.27;72.21
79123;BME280;68526;44.600;26.032;2023-04-15T00:59:00;99769.41;;;11.27;72.32
79123;BME280;68526;44.600;26.032;2023-04-15T00:59:17;99762.97;;;11.22;71.91
79123;BME280;68526;44.600;26.032;2023-04-15T00:59:33;99771.31;;;11.26;71.94
79123;BME280;68526;44.600;26.032;2023-04-15T00:59:50;99768.47;;;11.22;71.83
79123;BME280;68526;44.600;26.032;2023-04-15T01:00:07;99766.88;;;11.21;72.01
79123;BME280;68526;44.600;26.032;2023-04-15T01:00:28;99762.50;;;11.20;72.07
79123;BME280;68526;44.600;26.032;2023-04-15T01:00:44;99764.44;;;11.20;72.11
79123;BME280;68526;44.600;26.032;2023-04-15T01:01:01;99767.97;;;11.20;72.41
79123;BME280;68526;44.600;26.032;2023-04-15T01:01:20;99765.22;;;11.20;72.43
79123;BME280;68526;44.600;26.032;2023-04-15T01:01:36;99763.97;;;11.18;72.41
79123;BME280;68526;44.600;26.032;2023-04-15T01:01:52;99764.44;;;11.20;72.29
79123;BME280;68526;44.600;26.032;2023-04-15T01:02:09;99771.06;;;11.19;72.42
79123;BME280;68526;44.600;26.032;2023-04-15T01:02:25;99767.53;;;11.18;72.58
79123;BME280;68526;44.600;26.032;2023-04-15T01:02:41;99766.72;;;11.18;72.05
79123;BME280;68526;44.600;26.032;2023-04-15T01:02:57;99773.81;;;11.19;72.39
79123;BME280;68526;44.600;26.032;2023-04-15T01:03:13;99771.06;;;11.19;72.30
79123;BME280;68526;44.600;26.032;2023-04-15T01:03:30;99763.53;;;11.16;72.47
79123;BME280;68526;44.600;26.032;2023-04-15T01:03:46;99772.56;;;11.16;72.23
79123;BME280;68526;44.600;26.032;2023-04-15T01:04:03;99771.28;;;11.14;72.70
79123;BME280;68526;44.600;26.032;2023-04-15T01:04:19;99773.69;;;11.15;72.46
79123;BME280;68526;44.600;26.032;2023-04-15T01:04:36;99775.63;;;11.15;72.40
79123;BME280;68526;44.600;26.032;2023-04-15T01:04:53;99776.44;;;11.15;72.67
79123;BME280;68526;44.600;26.032;2023-04-15T01:05:09;99772.06;;;11.14;72.45
79123;BME280;68526;44.600;26.032;2023-04-15T01:05:25;99778.38;;;11.15;72.26
79123;BME280;68526;44.600;26.032;2023-04-15T01:05:41;99776.75;;;11.14;72.11
79123;BME280;68526;44.600;26.032;2023-04-15T01:05:57;99778.69;;;11.13;72.42
79123;BME280;68526;44.600;26.032;2023-04-15T01:06:13;99779.84;;;11.12;72.02
79123;BME280;68526;44.600;26.032;2023-04-15T01:06:31;99774.69;;;11.11;72.21
79123;BME280;68526;44.600;26.032;2023-04-15T01:06:47;99771.63;;;11.12;72.04
79123;BME280;68526;44.600;26.032;2023-04-15T01:07:02;99776.66;;;11.10;72.40
79123;BME280;68526;44.600;26.032;2023-04-15T01:07:18;99776.66;;;11.10;72.05
79123;BME280;68526;44.600;26.032;2023-04-15T01:07:34;99782.94;;;11.11;72.42
79123;BME280;68526;44.600;26.032;2023-04-15T01:07:50;99776.66;;;11.10;71.90
79123;BME280;68526;44.600;26.032;2023-04-15T01:08:07;99775.84;;;11.10;71.92
79123;BME280;68526;44.600;26.032;2023-04-15T01:08:26;99775.03;;;11.09;71.92
79123;BME280;68526;44.600;26.032;2023-04-15T01:08:42;99768.28;;;11.07;71.81
79123;BME280;68526;44.600;26.032;2023-04-15T01:08:58;99774.56;;;11.07;71.91
79123;BME280;68526;44.600;26.032;2023-04-15T01:09:14;99774.91;;;11.06;72.11
79123;BME280;68526;44.600;26.032;2023-04-15T01:09:31;99774.91;;;11.06;71.87
79123;BME280;68526;44.600;26.032;2023-04-15T01:09:47;99772.97;;;11.06;71.87
79123;BME280;68526;44.600;26.032;2023-04-15T01:10:04;99772.97;;;11.06;72.02
79123;BME280;68526;44.600;26.032;2023-04-15T01:10:20;99776.41;;;11.03;72.39
79123;BME280;68526;44.600;26.032;2023-04-15T01:10:36;99768.97;;;11.04;72.39
79123;BME280;68526;44.600;26.032;2023-04-15T01:10:52;99776.41;;;11.03;72.11
79123;BME280;68526;44.600;26.032;2023-04-15T01:11:11;99770.44;;;11.01;72.33
79123;BME280;68526;44.600;26.032;2023-04-15T01:11:28;99777.50;;;11.02;72.62
79123;BME280;68526;44.600;26.032;2023-04-15T01:11:45;99778.31;;;11.03;72.48
79123;BME280;68526;44.600;26.032;2023-04-15T01:12:01;99776.41;;;11.03;72.25
79123;BME280;68526;44.600;26.032;2023-04-15T01:12:19;99769.19;;;10.99;72.64
79123;BME280;68526;44.600;26.032;2023-04-15T01:12:36;99778.66;;;11.01;72.77
79123;BME280;68526;44.600;26.032;2023-04-15T01:12:52;99767.69;;;11.01;72.65
79123;BME280;68526;44.600;26.032;2023-04-15T01:13:08;99771.13;;;10.98;72.48
79123;BME280;68526;44.600;26.032;2023-04-15T01:13:23;99769.53;;;10.97;72.72
79123;BME280;68526;44.600;26.032;2023-04-15T01:13:39;99773.84;;;10.98;72.41
79123;BME280;68526;44.600;26.032;2023-04-15T01:13:57;99769.53;;;10.97;72.67
79123;BME280;68526;44.600;26.032;2023-04-15T01:14:14;99769.53;;;10.97;72.56
79123;BME280;68526;44.600;26.032;2023-04-15T01:14:30;99771.44;;;10.96;72.69
79123;BME280;68526;44.600;26.032;2023-04-15T01:14:47;99771.78;;;10.95;72.92
79123;BME280;68526;44.600;26.032;2023-04-15T01:15:03;99773.38;;;10.96;72.53
79123;BME280;68526;44.600;26.032;2023-04-15T01:15:19;99777.25;;;10.95;72.55
79123;BME280;68526;44.600;26.032;2023-04-15T01:15:37;99775.31;;;10.95;72.62
79123;BME280;68526;44.600;26.032;2023-04-15T01:15:55;99772.91;;;10.94;72.34
79123;BME280;68526;44.600;26.032;2023-04-15T01:16:11;99770.53;;;10.92;72.46
79123;BME280;68526;44.600;26.032;2023-04-15T01:16:27;99764.69;;;10.94;72.44
79123;BME280;68526;44.600;26.032;2023-04-15T01:16:43;99770.19;;;10.94;72.84
79123;BME280;68526;44.600;26.032;2023-04-15T01:16:59;99765.84;;;10.93;72.86
79123;BME280;68526;44.600;26.032;2023-04-15T01:17:16;99767.78;;;10.92;72.63
79123;BME280;68526;44.600;26.032;2023-04-15T01:17:32;99765.84;;;10.93;72.76
79123;BME280;68526;44.600;26.032;2023-04-15T01:17:48;99769.38;;;10.93;72.34
79123;BME280;68526;44.600;26.032;2023-04-15T01:18:05;99767.78;;;10.92;72.53
79123;BME280;68526;44.600;26.032;2023-04-15T01:18:22;99771.31;;;10.93;72.27
79123;BME280;68526;44.600;26.032;2023-04-15T01:18:38;99761.97;;;10.94;72.44
79123;BME280;68526;44.600;26.032;2023-04-15T01:18:55;99769.38;;;10.93;72.37
79123;BME280;68526;44.600;26.032;2023-04-15T01:19:13;99765.03;;;10.92;72.50
79123;BME280;68526;44.600;26.032;2023-04-15T01:19:31;99767.78;;;10.92;72.54
79123;BME280;68526;44.600;26.032;2023-04-15T01:19:47;99761.50;;;10.92;72.21
79123;BME280;68526;44.600;26.032;2023-04-15T01:20:04;99764.44;;;10.87;73.04
79123;BME280;68526;44.600;26.032;2023-04-15T01:20:21;99766.25;;;10.83;72.88
79123;BME280;68526;44.600;26.032;2023-04-15T01:20:37;99761.56;;;10.83;73.09
79123;BME280;68526;44.600;26.032;2023-04-15T01:20:54;99762.84;;;10.86;72.85
79123;BME280;68526;44.600;26.032;2023-04-15T01:21:10;99760.91;;;10.86;72.70
79123;BME280;68526;44.600;26.032;2023-04-15T01:21:27;99773.47;;;10.87;72.75
79123;BME280;68526;44.600;26.032;2023-04-15T01:21:43;99768.31;;;10.86;73.03
79123;BME280;68526;44.600;26.032;2023-04-15T01:22:01;99769.13;;;10.86;72.71
79123;BME280;68526;44.600;26.032;2023-04-15T01:22:18;99772.19;;;10.85;72.75
79123;BME280;68526;44.600;26.032;2023-04-15T01:22:34;99772.19;;;10.85;73.17
79123;BME280;68526;44.600;26.032;2023-04-15T01:22:50;99778.81;;;10.84;73.17
79123;BME280;68526;44.600;26.032;2023-04-15T01:23:06;99777.66;;;10.85;72.87
79123;BME280;68526;44.600;26.032;2023-04-15T01:23:21;99784.75;;;10.86;72.81
79123;BME280;68526;44.600;26.032;2023-04-15T01:23:38;99772.53;;;10.83;72.96
79123;BME280;68526;44.600;26.032;2023-04-15T01:23:56;99782.34;;;10.84;72.65
79123;BME280;68526;44.600;26.032;2023-04-15T01:24:17;99781.53;;;10.84;72.74
79123;BME280;68526;44.600;26.032;2023-04-15T01:24:34;99785.88;;;10.85;72.88
79123;BME280;68526;44.600;26.032;2023-04-15T01:24:54;99787.38;;;10.82;72.77
79123;BME280;68526;44.600;26.032;2023-04-15T01:25:17;99783.81;;;10.82;73.06
79123;BME280;68526;44.600;26.032;2023-04-15T01:25:34;99788.16;;;10.83;72.81
79123;BME280;68526;44.600;26.032;2023-04-15T01:25:52;99785.75;;;10.81;72.76
79123;BME280;68526;44.600;26.032;2023-04-15T01:26:08;99788.50;;;10.81;72.81
79123;BME280;68526;44.600;26.032;2023-04-15T01:26:24;99779.84;;;10.79;72.90
79123;BME280;68526;44.600;26.032;2023-04-15T01:26:41;99784.97;;;10.81;73.04